createdAt,value
2017-01-11T00:01:12.183Z,1005.26
2017-01-11T00:06:09.388Z,1005.12
2017-01-11T00:11:06.868Z,1005.19
2017-01-11T00:16:03.303Z,1005.11
2017-01-11T00:20:59.709Z,1004.93
2017-01-11T00:25:56.244Z,1004.92
2017-01-11T00:30:52.709Z,1004.96
2017-01-11T00:35:49.212Z,1004.94
2017-01-11T00:40:45.859Z,1004.85
2017-01-11T00:45:42.254Z,1005.00
2017-01-11T00:50:38.654Z,1004.91
2017-01-11T00:55:35.167Z,1004.70
2017-01-11T01:00:31.458Z,1004.90
2017-01-11T01:05:28.373Z,1004.71
2017-01-11T01:10:24.608Z,1004.73
2017-01-11T01:15:21.166Z,1004.68
2017-01-11T01:20:17.555Z,1004.57
2017-01-11T01:25:14.340Z,1004.50
2017-01-11T01:30:10.765Z,1004.48
2017-01-11T01:35:07.572Z,1004.44
2017-01-11T01:40:04.033Z,1004.46
2017-01-11T01:45:00.509Z,1004.41
2017-01-11T01:49:57.051Z,1004.56
2017-01-11T01:54:53.524Z,1004.37
2017-01-11T01:59:49.975Z,1004.20
2017-01-11T02:04:45.966Z,1004.23
2017-01-11T02:09:42.823Z,1004.13
2017-01-11T02:14:39.402Z,1004.03
2017-01-11T02:19:35.617Z,1004.11
2017-01-11T02:24:32.197Z,1003.91
2017-01-11T02:29:28.800Z,1003.73
2017-01-11T02:34:25.832Z,1003.83
2017-01-11T02:39:22.277Z,1003.84
2017-01-11T02:44:18.519Z,1003.72
2017-01-11T02:49:15.065Z,1003.69
2017-01-11T02:54:11.471Z,1003.53
2017-01-11T02:59:07.909Z,1003.29
2017-01-11T03:04:04.421Z,1003.16
2017-01-11T03:09:00.644Z,1003.44
2017-01-11T03:13:57.425Z,1003.27
2017-01-11T03:18:53.846Z,1003.20
2017-01-11T03:23:50.706Z,1003.21
2017-01-11T03:28:47.021Z,1003.05
2017-01-11T03:33:43.204Z,1003.33
2017-01-11T03:38:39.557Z,1003.18
2017-01-11T03:43:35.792Z,1003.20
2017-01-11T03:48:32.413Z,1003.14
2017-01-11T03:53:28.474Z,1002.98
2017-01-11T03:58:24.833Z,1002.82
2017-01-11T04:03:21.658Z,1002.78
2017-01-11T04:08:18.118Z,1002.52
2017-01-11T04:13:14.494Z,1002.49
2017-01-11T04:18:10.801Z,1002.48
2017-01-11T04:23:07.204Z,1002.42
2017-01-11T04:28:03.744Z,1002.36
2017-01-11T04:33:00.203Z,1002.32
2017-01-11T04:37:56.680Z,1002.23
2017-01-11T04:47:53.027Z,1002.32
2017-01-11T04:52:49.403Z,1002.15
2017-01-11T04:57:45.976Z,1002.01
2017-01-11T05:02:43.161Z,1001.94
2017-01-11T05:07:39.489Z,1001.76
2017-01-11T05:12:36.150Z,1001.74
2017-01-11T05:17:32.462Z,1001.52
2017-01-11T05:22:28.911Z,1001.35
2017-01-11T05:27:25.209Z,1000.98
2017-01-11T05:32:21.720Z,1000.90
2017-01-11T05:37:18.502Z,1000.73
2017-01-11T05:42:15.095Z,1000.49
2017-01-11T05:47:11.596Z,1000.49
2017-01-11T05:52:07.918Z,1000.51
2017-01-11T05:57:04.273Z,1000.43
2017-01-11T06:02:00.936Z,1000.28
2017-01-11T06:06:57.192Z,1000.28
2017-01-11T06:11:53.814Z,1000.45
2017-01-11T06:16:50.449Z,1000.43
2017-01-11T06:21:46.999Z,1000.43
2017-01-11T06:26:44.279Z,1000.60
2017-01-11T06:31:40.757Z,1000.54
2017-01-11T06:36:37.235Z,1000.52
2017-01-11T06:41:33.895Z,1000.47
2017-01-11T06:46:30.303Z,1000.54
2017-01-11T06:51:26.863Z,1000.44
2017-01-11T06:56:23.375Z,1000.40
2017-01-11T07:01:19.666Z,1000.20
2017-01-11T07:06:16.061Z,1000.10
2017-01-11T07:11:12.470Z,1000.05
2017-01-11T07:16:08.853Z,999.89
2017-01-11T07:21:05.654Z,999.73
2017-01-11T07:26:02.370Z,999.67
2017-01-11T07:30:58.846Z,999.53
2017-01-11T07:35:55.211Z,999.60
2017-01-11T07:40:51.777Z,999.57
2017-01-11T07:45:48.158Z,999.47
2017-01-11T07:50:44.558Z,999.14
2017-01-11T07:55:41.636Z,999.11
2017-01-11T08:00:38.087Z,998.83
2017-01-11T08:05:34.644Z,998.90
2017-01-11T08:10:30.931Z,998.81
2017-01-11T08:15:27.450Z,998.40
2017-01-11T08:20:23.969Z,998.53
2017-01-11T08:25:20.436Z,998.09
2017-01-11T08:30:16.973Z,997.84
2017-01-11T08:35:13.860Z,997.72
2017-01-11T08:40:10.192Z,997.53
2017-01-11T08:45:06.651Z,997.53
2017-01-11T08:50:03.200Z,997.58
2017-01-11T08:54:59.566Z,997.40
2017-01-11T08:59:56.071Z,997.16
2017-01-11T09:04:52.678Z,997.11
2017-01-11T09:09:49.025Z,996.98
2017-01-11T09:14:45.376Z,997.00
2017-01-11T09:19:41.615Z,996.72
2017-01-11T09:24:38.624Z,996.67
2017-01-11T09:29:36.704Z,996.41
2017-01-11T09:34:32.671Z,996.22
2017-01-11T09:39:29.384Z,996.20
2017-01-11T09:44:25.930Z,996.15
2017-01-11T09:49:23.089Z,995.78
2017-01-11T09:54:19.746Z,995.56
2017-01-11T09:59:16.343Z,995.41
2017-01-11T10:04:12.772Z,995.27
2017-01-11T10:09:09.916Z,995.20
2017-01-11T10:14:06.196Z,995.23
2017-01-11T10:19:03.017Z,995.18
2017-01-11T10:23:59.337Z,995.24
2017-01-11T10:28:56.087Z,995.13
2017-01-11T10:33:52.584Z,995.11
2017-01-11T10:38:50.193Z,994.80
2017-01-11T10:43:47.169Z,994.69
2017-01-11T10:48:43.188Z,994.50
2017-01-11T10:53:39.707Z,994.65
2017-01-11T10:58:36.206Z,994.32
2017-01-11T11:03:32.569Z,994.53
2017-01-11T11:08:28.986Z,994.28
2017-01-11T11:13:25.246Z,994.19
2017-01-11T11:18:21.930Z,993.97
2017-01-11T11:23:18.613Z,993.91
2017-01-11T11:28:15.194Z,993.86
2017-01-11T11:33:11.609Z,993.74
2017-01-11T11:38:08.153Z,993.68
2017-01-11T11:43:04.690Z,994.00
2017-01-11T11:48:01.591Z,993.71
2017-01-11T11:52:57.963Z,993.82
2017-01-11T11:57:54.463Z,993.75
2017-01-11T12:07:51.842Z,993.75
2017-01-11T12:12:48.369Z,993.70
2017-01-11T12:17:44.973Z,993.74
2017-01-11T12:22:41.576Z,993.57
2017-01-11T12:27:38.271Z,993.80
2017-01-11T12:32:34.786Z,993.71
2017-01-11T12:37:31.607Z,993.79
2017-01-11T12:42:28.681Z,993.82
2017-01-11T12:47:25.205Z,993.87
2017-01-11T12:52:21.692Z,993.86
2017-01-11T12:57:18.204Z,993.96
2017-01-11T13:02:14.653Z,993.83
2017-01-11T13:07:11.279Z,993.81
2017-01-11T13:12:07.920Z,993.71
2017-01-11T13:17:04.384Z,993.64
2017-01-11T13:22:00.903Z,993.70
2017-01-11T13:26:57.620Z,993.64
2017-01-11T13:31:54.026Z,993.61
2017-01-11T13:36:50.515Z,993.64
2017-01-11T13:41:46.532Z,993.41
2017-01-11T13:46:43.027Z,993.60
2017-01-11T13:51:39.471Z,993.50
2017-01-11T13:56:35.872Z,993.59
2017-01-11T14:01:32.593Z,993.77
2017-01-11T14:06:29.278Z,993.78
2017-01-11T14:11:25.207Z,993.90
2017-01-11T14:16:21.612Z,994.07
2017-01-11T14:21:18.169Z,994.00
2017-01-11T14:26:14.849Z,994.25
2017-01-11T14:31:11.745Z,994.28
2017-01-11T14:36:08.187Z,994.42
2017-01-11T14:41:05.153Z,994.41
2017-01-11T14:46:01.397Z,994.34
2017-01-11T14:50:57.766Z,994.50
2017-01-11T14:55:54.982Z,994.43
2017-01-11T15:00:52.024Z,994.62
2017-01-11T15:05:48.288Z,994.58
2017-01-11T15:10:45.081Z,994.61
2017-01-11T15:15:41.388Z,994.59
2017-01-11T15:20:37.624Z,994.70
2017-01-11T15:25:34.130Z,994.75
2017-01-11T15:30:30.738Z,994.67
2017-01-11T15:35:27.462Z,994.76
2017-01-11T15:40:24.002Z,994.86
2017-01-11T15:50:20.086Z,995.09
2017-01-11T15:55:16.530Z,995.64
2017-01-11T16:00:12.618Z,995.30
2017-01-11T16:05:08.857Z,995.16
2017-01-11T16:10:05.144Z,995.23
2017-01-11T16:15:01.385Z,995.33
2017-01-11T16:19:57.906Z,995.32
2017-01-11T16:24:54.864Z,995.54
2017-01-11T16:29:51.403Z,995.65
2017-01-11T16:34:47.869Z,996.03
2017-01-11T16:39:45.467Z,996.20
2017-01-11T16:44:42.002Z,995.86
2017-01-11T16:49:38.143Z,995.83
2017-01-11T16:54:34.585Z,995.88
2017-01-11T16:59:30.816Z,995.95
2017-01-11T17:04:27.197Z,996.14
2017-01-11T17:09:23.790Z,996.02
2017-01-11T17:14:20.427Z,996.07
2017-01-11T17:19:17.328Z,996.12
2017-01-11T17:24:13.905Z,996.25
2017-01-11T17:29:10.920Z,996.41
2017-01-11T17:34:06.973Z,996.37
2017-01-11T17:39:03.581Z,996.41
2017-01-11T17:43:59.671Z,996.43
2017-01-11T17:48:59.556Z,996.56
2017-01-11T17:53:55.319Z,996.56
2017-01-11T17:58:53.166Z,996.76
2017-01-11T18:03:52.524Z,996.75
2017-01-11T18:08:49.099Z,996.84
2017-01-11T18:13:45.889Z,996.88
2017-01-11T18:18:42.262Z,997.00
2017-01-11T18:23:38.478Z,996.91
2017-01-11T18:28:34.933Z,996.96
2017-01-11T18:33:31.665Z,997.03
2017-01-11T18:38:28.051Z,997.05
2017-01-11T18:43:24.564Z,997.24
2017-01-11T18:48:21.074Z,997.22
2017-01-11T18:53:17.425Z,997.28
2017-01-11T18:58:13.884Z,997.37
2017-01-11T19:03:10.355Z,997.38
2017-01-11T19:08:06.866Z,997.41
2017-01-11T19:13:03.568Z,997.51
2017-01-11T19:17:59.908Z,997.60
2017-01-11T19:22:56.628Z,997.67
2017-01-11T19:27:53.023Z,997.67
2017-01-11T19:32:50.605Z,997.66
2017-01-11T19:37:46.625Z,997.75
2017-01-11T19:42:43.039Z,997.86
2017-01-11T19:47:39.442Z,997.82
2017-01-11T19:52:35.952Z,997.70
2017-01-11T19:57:33.597Z,997.91
2017-01-11T20:02:29.833Z,997.82
2017-01-11T20:07:26.306Z,998.04
2017-01-11T20:12:23.497Z,997.98
2017-01-11T20:17:19.850Z,998.04
2017-01-11T20:22:16.518Z,998.09
2017-01-11T20:27:13.037Z,998.07
2017-01-11T20:32:09.213Z,998.00
2017-01-11T20:37:05.608Z,997.95
2017-01-11T20:42:01.887Z,998.32
2017-01-11T20:46:58.670Z,998.56
2017-01-11T20:51:54.892Z,998.55
2017-01-11T20:56:51.149Z,998.70
2017-01-11T21:01:47.280Z,998.76
2017-01-11T21:06:43.513Z,998.97
2017-01-11T21:11:40.030Z,998.87
2017-01-11T21:16:36.662Z,998.89
2017-01-11T21:21:32.832Z,999.18
2017-01-11T21:26:29.208Z,999.05
2017-01-11T21:31:25.582Z,998.95
2017-01-11T21:36:22.055Z,999.04
2017-01-11T21:41:18.511Z,999.09
2017-01-11T21:46:15.953Z,999.24
2017-01-11T21:51:12.105Z,999.15
2017-01-11T21:56:08.447Z,999.07
2017-01-11T22:01:04.889Z,999.19
2017-01-11T22:06:02.111Z,999.40
2017-01-11T22:10:58.705Z,999.26
2017-01-11T22:15:55.213Z,999.35
2017-01-11T22:20:51.953Z,999.49
2017-01-11T22:25:48.622Z,999.55
2017-01-11T22:30:45.128Z,999.55
2017-01-11T22:35:41.535Z,999.54
2017-01-11T22:40:38.127Z,999.64
2017-01-11T22:45:34.743Z,999.73
2017-01-11T22:50:31.161Z,999.84
2017-01-11T22:55:27.480Z,999.90
2017-01-11T23:00:23.817Z,999.89
2017-01-11T23:05:20.431Z,999.96
2017-01-11T23:10:16.796Z,1000.08
2017-01-11T23:15:13.183Z,1000.14
2017-01-11T23:20:09.491Z,1000.28
2017-01-11T23:25:06.062Z,1000.33
2017-01-11T23:30:02.478Z,1000.42
2017-01-11T23:34:59.524Z,1000.42
2017-01-11T23:39:56.170Z,1000.44
2017-01-11T23:44:52.927Z,1000.44
2017-01-11T23:49:49.551Z,1000.47
2017-01-11T23:54:46.143Z,1000.43
2017-01-11T23:59:43.101Z,1000.53
